Share

Greenville, AL

West Crenshaw Co. (KALRUTLE2) Elev 420 ft | 31.73 °N, 86.35 °W | Change Station

Current weather conditions updated 4 seconds ago

Rain
Rain
55.4 °F
Feels Like 55.4 °F
N
2.0
Wind Variable Wind from NE
Gusts 12.0 mph
Sunrise 6:14 AM
Sunset 7:17 PM
Moon Waning Gibbous

Tomorrow is forecast to be Much Warmer than today.

Pressure 30.09 in
Visibility 10.0 miles
Clouds Mostly Cloudy 1300 ft
Overcast 2000 ft
Dew Point 53 °F
Humidity 93%
Rainfall 1.27 in
Snow Depth Not available.
UV 0.0 out of 16
Pollen 6.10 out of 12
Air Quality Not available.
Flu Activity Sporadic
METAR KMGM 190053Z 34008KT 10SM BKN013 OVC020 13/11 A3009 RMK AO2 SLP190 T01330111

More Conditions Fewer Conditions

Pressure 30.09 in
Visibility 10.0 miles
Clouds Mostly Cloudy 1300 ft
Overcast 2000 ft
Dew Point 53 °F
Humidity 93%
Rainfall 1.27 in
Snow Depth Not available.
UV 0.0 out of 16
Pollen 6.10 out of 12
Air Quality Not available.
Flu Activity Sporadic
METAR KMGM 190053Z 34008KT 10SM BKN013 OVC020 13/11 A3009 RMK AO2 SLP190 T01330111

More Conditions Fewer Conditions

10-Day Weather Forecast

Almanac

Astronomy

Apr. 18, 2014 Rise Set
Actual Time 6:14 AM CDT 7:17 PM CDT
Civil Twilight 5:49 AM CDT 7:42 PM CDT
Nautical Twilight 5:19 AM CDT 8:12 PM CDT
Astronomical Twilight 4:48 AM CDT 8:43 PM CDT
Moon 10:54 PM CDT (4/18) 8:43 AM CDT (4/18)
Length of Visible Light 13h 53m
Length of Day
13h 03m
Tomorrow will be 1m 48s longer.
Waning Gibbous, 84% of the Moon is Illuminated
Today
Waning Gibbous
Apr 22
Last Quarter
Apr 29
New
May 6
First Quarter
May 14
Full

Today's Extremes

State Highs State Lows

Community

  • Cloudy spring view
    Cloudy spring view
  • Old barn
    Old barn
  • What's for Lunch?
    What's for Lunch?
  • SUNRISE THROUGH THE TREES.
    SUNRISE THROUGH THE TREES.
  • Dog Wood Blossoms
    Dog Wood Blossoms

WunderPhotos

Upload Photos

1,702,563 photos uploaded!

WunderBlogs® & News

Nearby

Snow Depth

Station Depth Elevation
No new snow has been reported.

Coastal Water Temperatures

Place Temperature
No Stations Reporting

Earthquake Activity

City Distance Mag. Time & Date
No recent earthquake activity has been reported nearby.
Minimum magnitude displayed is 2.5.

Nearby Weather Stations

Station Location Temp. Dew Point Humidity Wind Precip. Elev Updated Type
West Crenshaw Co., Faith Hill, AL 55.4 °F 53 °F 93% NE  at  2.0 mph 0.04 in / hr 420 ft 8:22 PM CDT Rapid Fire
HCN HIGHLAND HOME HIGHLAND HOME 2 S AL , Highland Home, AL 53 °F - - North  at  - 0.00 in / hr 614 ft 7:10 PM CDT MADIS

Show More Stations Show Fewer Stations

What do you think?

We're not finished. Please let us know what you like, what you don't like, and what you are still missing.